CDT,Max TemperatureF,Mean TemperatureF,Min TemperatureF,Max Dew PointF,MeanDew PointF,Min DewpointF,Max Humidity, Mean Humidity, Min Humidity, Max Sea Level PressureIn, Mean Sea Level PressureIn, Min Sea Level PressureIn, Max VisibilityMiles, Mean VisibilityMiles, Min VisibilityMiles, Max Wind SpeedMPH, Mean Wind SpeedMPH, Max Gust SpeedMPH,PrecipitationIn, CloudCover, Events, WindDirDegrees
2011-10-1,75,58,41,37,34,30,71,46,24,30.26,30.19,30.12,10,10,10,20,8,25,0.00,0,,126
2011-10-2,82,63,44,41,37,34,71,43,20,30.15,30.11,30.04,10,10,10,20,9,24,0.00,0,,136
2011-10-3,84,65,46,43,39,36,66,41,20,30.14,30.09,30.04,10,10,4,24,9,30,0.00,0,,122
2011-10-4,89,71,53,46,43,39,63,40,21,30.08,30.00,29.92,10,10,10,21,11,24,0.00,0,,136
2011-10-5,84,70,57,45,42,37,59,35,19,30.00,29.95,29.88,10,10,10,28,13,34,0.00,0,,157
2011-10-6,78,70,62,54,44,37,68,42,35,29.91,29.83,29.71,10,10,10,36,20,44,0.00,2,,142
2011-10-7,82,72,62,64,54,43,78,53,35,29.84,29.77,29.73,10,10,9,33,23,45,0.12,3,Thunderstorm,162
2011-10-8,66,64,62,61,60,55,94,86,68,30.05,29.99,29.85,10,9,4,26,11,33,0.92,7,Thunderstorm,102
2011-10-9,73,66,60,61,58,54,94,76,50,30.13,30.06,29.96,10,9,4,16,6,24,0.01,6,,114
2011-10-10,71,63,55,57,50,46,94,70,41,30.01,29.95,29.86,10,10,10,17,11,22,0.11,3,,174
2011-10-11,73,62,50,55,51,45,88,70,50,29.87,29.79,29.71,10,10,10,21,8,24,0.04,3,Thunderstorm,153
2011-10-12,68,60,53,55,49,41,94,71,46,29.81,29.75,29.69,10,10,1,23,8,28,0.04,4,Thunderstorm,283
2011-10-13,68,57,46,41,36,28,76,51,26,29.86,29.82,29.77,10,10,10,34,13,41,0.00,0,,284
2011-10-14,60,51,42,37,34,30,76,59,31,30.02,29.93,29.84,10,10,10,31,16,40,0.00,0,,292
2011-10-15,68,52,35,41,34,30,87,53,28,30.02,29.90,29.75,10,10,8,15,6,20,0.00,1,,149
2011-10-16,57,47,37,39,33,25,87,56,29,30.09,30.02,29.84,10,10,10,22,12,26,0.00,1,,302
2011-10-17,53,44,35,36,30,25,81,54,33,30.06,30.03,30.00,10,10,10,16,7,22,0.00,2,,281
2011-10-18,51,42,33,30,26,25,81,56,35,30.17,30.11,30.03,10,10,10,26,13,33,0.00,1,,313
2011-10-19,44,35,26,27,24,21,86,66,46,30.20,30.15,30.11,10,10,10,18,10,23,0.00,3,,326
2011-10-20,50,38,26,30,28,25,93,67,43,30.11,30.07,30.01,10,10,10,12,7,17,0.00,1,,301
2011-10-21,69,48,28,39,32,25,93,66,31,30.05,30.02,30.00,10,10,10,15,3,20,0.00,0,,14
2011-10-22,60,51,42,46,43,39,93,73,55,30.16,30.09,30.00,10,10,7,12,5,,0.12,4,,122
2011-10-23,69,55,41,46,41,36,93,62,28,29.98,29.92,29.86,10,10,7,23,9,30,0.00,1,,259
2011-10-24,68,54,39,43,38,34,87,58,35,30.07,29.97,29.80,10,10,9,14,4,20,0.00,0,,90
2011-10-25,60,52,44,39,36,34,76,60,42,30.03,29.81,29.71,10,10,10,25,11,32,0.00,0,,5
2011-10-26,46,44,41,37,34,30,76,69,57,30.19,30.13,30.09,10,10,10,20,11,22,0.00,5,,309
2011-10-27,53,40,28,30,26,21,86,58,28,30.14,30.10,30.05,10,10,8,12,6,,0.00,0,,234
2011-10-28,55,44,33,30,23,16,75,48,21,30.21,30.14,30.06,10,10,9,23,10,31,0.00,0,,285
2011-10-29,60,43,26,30,25,19,80,51,27,30.12,29.93,29.78,10,10,10,21,6,28,0.00,0,,127
2011-10-30,55,47,39,34,28,21,75,55,28,30.03,29.96,29.84,10,10,10,30,20,36,0.00,0,,288
2011-10-31,64,44,24,30,24,18,80,52,24,30.07,29.95,29.83,10,10,10,16,5,23,0.00,0,,133